Time;durP1;ratioP1;P1;durP2;ratioP2;P2;SDS_P1;SDS_P2;PMS_P1;PMS_P2;Temp;Humidity;BMP_temperature;BMP_pressure;BME280_temperature;BME280_humidity;BME280_pressure;Samples;Min_cycle;Max_cycle;Signal;HPM_P1;HPM_P2
2023/04/19 00:01:58;;;;;;;;;;;7.90;99.90;;;;;;5088211;28;19932;-80
2023/04/19 00:04:24;;;;;;;;;;;8.00;99.90;;;;;;5070209;28;19931;-80
2023/04/19 00:06:50;;;;;;;;;;;7.90;99.90;;;;;;5061163;28;19928;-80
2023/04/19 00:09:16;;;;;;;;;;;7.90;99.90;;;;;;5076459;28;19987;-80
2023/04/19 00:11:41;;;;;;;;;;;7.90;99.90;;;;;;5076690;28;19925;-80
2023/04/19 00:14:07;;;;;;;;;;;7.90;99.90;;;;;;5081248;28;19928;-80
2023/04/19 00:16:33;;;;;;;;;;;7.80;99.90;;;;;;5073974;28;20387;-80
2023/04/19 00:18:58;;;;;;;;;;;7.80;99.90;;;;;;5089644;28;19929;-80
2023/04/19 00:21:25;;;;;;;;;;;7.80;99.90;;;;;;5070847;28;19924;-80
2023/04/19 00:23:50;;;;;;;;;;;7.90;99.90;;;;;;5070751;28;19929;-80
2023/04/19 00:26:16;;;;;;;;;;;7.90;99.90;;;;;;5090890;28;19931;-80
2023/04/19 00:28:41;;;;;;;;;;;7.90;99.90;;;;;;5076965;28;19960;-80
2023/04/19 00:31:07;;;;;;;;;;;7.90;99.90;;;;;;5073200;28;20660;-80
2023/04/19 00:33:33;;;;;;;;;;;7.90;99.90;;;;;;5088495;28;19975;-80
2023/04/19 00:35:58;;;;;;;;;;;7.90;99.90;;;;;;5040078;28;19932;-80
2023/04/19 00:38:24;;;;;;;;;;;7.90;99.90;;;;;;5071825;28;19962;-80
2023/04/19 00:40:49;;;;;;;;;;;7.90;99.90;;;;;;5087430;28;19988;-80
2023/04/19 00:43:18;;;;;;;;;;;7.90;99.90;;;;;;5074091;28;19956;-80
2023/04/19 00:45:44;;;;;;;;;;;7.90;99.90;;;;;;5057176;28;19935;-80
2023/04/19 00:48:10;;;;;;;;;;;7.90;99.90;;;;;;5071796;28;19924;-79
2023/04/19 00:50:36;;;;;;;;;;;7.90;99.90;;;;;;5073329;28;19992;-80
2023/04/19 00:53:01;;;;;;;;;;;7.90;99.90;;;;;;5089421;28;19960;-80
2023/04/19 00:55:27;;;;;;;;;;;7.90;99.90;;;;;;5071117;28;19970;-80
2023/04/19 00:57:53;;;;;;;;;;;7.90;99.90;;;;;;5070709;28;19929;-80
2023/04/19 01:00:19;;;;;;;;;;;8.00;99.90;;;;;;5087898;28;20011;-80
2023/04/19 01:02:45;;;;;;;;;;;8.00;99.90;;;;;;5073038;28;19924;-80
2023/04/19 01:05:10;;;;;;;;;;;8.00;99.90;;;;;;5072320;28;19929;-80
2023/04/19 01:07:36;;;;;;;;;;;8.00;99.90;;;;;;5087033;28;19928;-80
2023/04/19 01:10:02;;;;;;;;;;;8.00;99.90;;;;;;5086911;28;20330;-79
2023/04/19 01:12:28;;;;;;;;;;;8.00;99.90;;;;;;5090660;28;19939;-80
2023/04/19 01:14:53;;;;;;;;;;;8.00;99.90;;;;;;5057586;28;19940;-80
2023/04/19 01:17:19;;;;;;;;;;;8.10;99.90;;;;;;5071531;28;20330;-79
2023/04/19 01:19:45;;;;;;;;;;;8.10;99.90;;;;;;5076507;28;20027;-80
2023/04/19 01:22:15;;;;;;;;;;;8.10;99.90;;;;;;5071382;28;19935;-80
2023/04/19 01:24:41;;;;;;;;;;;8.10;99.90;;;;;;5058499;28;19924;-80
2023/04/19 01:27:06;;;;;;;;;;;8.10;99.90;;;;;;5087910;28;19924;-80
2023/04/19 01:29:32;;;;;;;;;;;8.10;99.90;;;;;;5068158;28;19932;-80
2023/04/19 01:31:57;;;;;;;;;;;8.10;99.90;;;;;;5072453;28;20391;-80
2023/04/19 01:34:23;;;;;;;;;;;8.10;99.90;;;;;;5087047;28;19931;-80
2023/04/19 01:36:49;;;;;;;;;;;8.10;99.90;;;;;;5070380;28;19937;-80
2023/04/19 01:39:14;;;;;;;;;;;8.10;99.90;;;;;;5071018;28;19935;-80
2023/04/19 01:41:40;;;;;;;;;;;8.10;99.90;;;;;;5069878;28;19932;-80
2023/04/19 01:44:06;;;;;;;;;;;8.10;99.90;;;;;;5038968;28;19932;-80
2023/04/19 01:46:31;;;;;;;;;;;8.10;99.90;;;;;;5076909;28;19936;-80
2023/04/19 01:48:57;;;;;;;;;;;8.10;99.90;;;;;;5085369;28;19990;-80
2023/04/19 01:51:23;;;;;;;;;;;8.10;99.90;;;;;;5070283;28;19986;-79
2023/04/19 01:53:53;;;;;;;;;;;8.10;99.90;;;;;;5071622;28;19937;-80
2023/04/19 01:56:19;;;;;;;;;;;8.10;99.90;;;;;;5071016;28;19936;-80
2023/04/19 01:58:45;;;;;;;;;;;8.10;99.90;;;;;;5070011;28;19928;-80
2023/04/19 02:01:11;;;;;;;;;;;8.10;99.90;;;;;;5087025;28;19944;-80
2023/04/19 02:03:37;;;;;;;;;;;8.10;99.90;;;;;;5070289;28;20703;-80
2023/04/19 02:06:03;;;;;;;;;;;8.10;99.90;;;;;;5085068;28;19939;-79
2023/04/19 02:08:29;;;;;;;;;;;8.10;99.90;;;;;;5039825;28;19928;-80
2023/04/19 02:10:54;;;;;;;;;;;8.10;99.90;;;;;;5085559;28;19924;-80
2023/04/19 02:13:20;;;;;;;;;;;8.10;99.90;;;;;;5071481;28;19924;-80
2023/04/19 02:15:46;;;;;;;;;;;8.10;99.90;;;;;;5089646;28;19967;-80
2023/04/19 02:18:12;;;;;;;;;;;8.10;99.90;;;;;;5039477;28;19943;-80
2023/04/19 02:20:38;;;;;;;;;;;8.10;99.90;;;;;;5074046;28;19932;-80
2023/04/19 02:23:03;;;;;;;;;;;8.10;99.90;;;;;;5087080;28;20005;-80
2023/04/19 02:25:29;;;;;;;;;;;8.10;99.90;;;;;;5088635;28;19935;-80
2023/04/19 02:27:55;;;;;;;;;;;8.00;99.90;;;;;;5091575;28;19932;-80
2023/04/19 02:30:21;;;;;;;;;;;8.00;99.90;;;;;;5081338;28;19955;-80
2023/04/19 02:32:47;;;;;;;;;;;8.00;99.90;;;;;;5073875;28;19931;-80
2023/04/19 02:35:12;;;;;;;;;;;8.00;99.90;;;;;;5073227;28;21365;-79
2023/04/19 02:37:38;;;;;;;;;;;7.90;99.90;;;;;;5074082;28;19932;-80
2023/04/19 02:40:04;;;;;;;;;;;7.90;99.90;;;;;;5073326;28;19932;-80
2023/04/19 02:42:29;;;;;;;;;;;7.90;99.90;;;;;;5106157;28;20011;-79
2023/04/19 02:44:55;;;;;;;;;;;7.90;99.90;;;;;;5040834;28;19925;-79
2023/04/19 02:47:21;;;;;;;;;;;7.80;99.90;;;;;;5072660;28;19925;-80
2023/04/19 02:49:46;;;;;;;;;;;7.80;99.90;;;;;;5077248;28;19931;-80
2023/04/19 02:52:12;;;;;;;;;;;7.70;99.90;;;;;;5043482;28;20455;-79
2023/04/19 02:54:37;;;;;;;;;;;7.70;99.90;;;;;;5058434;28;19939;-79
2023/04/19 02:57:03;;;;;;;;;;;7.70;99.90;;;;;;5041875;28;20005;-79
2023/04/19 02:59:29;;;;;;;;;;;7.60;99.90;;;;;;5072692;28;19950;-80
2023/04/19 03:01:54;;;;;;;;;;;7.60;99.90;;;;;;5086838;28;19954;-80
2023/04/19 03:04:20;;;;;;;;;;;7.50;99.90;;;;;;5072058;28;20011;-80
2023/04/19 03:06:46;;;;;;;;;;;7.50;99.90;;;;;;5071123;28;20354;-80
2023/04/19 03:09:12;;;;;;;;;;;7.40;99.90;;;;;;5090070;28;19929;-80
2023/04/19 03:11:37;;;;;;;;;;;7.30;99.90;;;;;;5090793;28;19928;-80
2023/04/19 03:14:03;;;;;;;;;;;7.30;99.90;;;;;;5089348;28;19932;-80
2023/04/19 03:16:29;;;;;;;;;;;7.20;99.90;;;;;;5071383;28;19954;-80
2023/04/19 03:18:54;;;;;;;;;;;7.10;99.90;;;;;;5088849;28;19928;-79
2023/04/19 03:21:20;;;;;;;;;;;7.10;99.90;;;;;;5047877;28;19975;-80
2023/04/19 03:23:45;;;;;;;;;;;7.00;99.90;;;;;;5088914;28;20599;-79
2023/04/19 03:26:11;;;;;;;;;;;6.90;99.90;;;;;;5074519;28;19963;-79
2023/04/19 03:28:37;;;;;;;;;;;6.90;99.90;;;;;;5065246;28;19924;-80
2023/04/19 03:31:02;;;;;;;;;;;6.80;99.90;;;;;;5057177;28;19943;-80
2023/04/19 03:33:28;;;;;;;;;;;6.70;99.90;;;;;;5057690;28;19967;-79
2023/04/19 03:35:53;;;;;;;;;;;6.70;99.90;;;;;;5072956;28;20405;-79
2023/04/19 03:38:19;;;;;;;;;;;6.60;99.90;;;;;;5088717;28;19959;-79
2023/04/19 03:40:45;;;;;;;;;;;6.50;99.90;;;;;;5088682;28;19929;-79
2023/04/19 03:43:11;;;;;;;;;;;6.50;99.90;;;;;;5073187;28;20399;-80
2023/04/19 03:45:37;;;;;;;;;;;6.40;99.90;;;;;;5072241;28;19999;-79
2023/04/19 03:48:02;;;;;;;;;;;6.40;99.90;;;;;;5055742;28;20365;-79
2023/04/19 03:50:28;;;;;;;;;;;6.40;99.90;;;;;;5090037;28;20023;-79
2023/04/19 03:52:53;;;;;;;;;;;6.30;99.90;;;;;;5090026;28;20458;-80
2023/04/19 03:55:19;;;;;;;;;;;6.20;99.90;;;;;;5060483;28;20457;-80
2023/04/19 03:57:45;;;;;;;;;;;6.20;99.90;;;;;;5038838;28;20290;-80
2023/04/19 04:00:11;;;;;;;;;;;6.20;99.90;;;;;;5041308;28;20448;-80
2023/04/19 04:02:37;;;;;;;;;;;6.20;99.90;;;;;;5088027;28;20526;-80
2023/04/19 04:05:03;;;;;;;;;;;6.10;99.90;;;;;;5089048;28;19928;-80
2023/04/19 04:07:28;;;;;;;;;;;6.10;99.90;;;;;;5072688;28;19939;-80
2023/04/19 04:09:54;;;;;;;;;;;6.00;99.90;;;;;;5087436;28;20019;-80
2023/04/19 04:12:19;;;;;;;;;;;6.00;99.90;;;;;;5057571;28;19925;-80
2023/04/19 04:14:45;;;;;;;;;;;5.90;99.90;;;;;;5089258;28;19925;-80
2023/04/19 04:17:11;;;;;;;;;;;5.90;99.90;;;;;;5071710;28;19928;-80
2023/04/19 04:19:36;;;;;;;;;;;5.90;99.90;;;;;;5092101;28;19929;-80
2023/04/19 04:22:02;;;;;;;;;;;5.80;99.90;;;;;;5077893;28;20015;-80
2023/04/19 04:24:29;;;;;;;;;;;5.80;99.90;;;;;;5077441;28;20392;-79
2023/04/19 04:26:56;;;;;;;;;;;5.80;99.90;;;;;;5077882;28;19936;-79
2023/04/19 04:29:22;;;;;;;;;;;5.80;99.90;;;;;;5080805;28;19924;-79
2023/04/19 04:31:47;;;;;;;;;;;5.80;99.90;;;;;;5061237;28;20284;-80
2023/04/19 04:34:13;;;;;;;;;;;5.70;99.90;;;;;;5060831;28;19963;-80
2023/04/19 04:36:40;;;;;;;;;;;5.70;99.90;;;;;;5076817;28;19928;-80
2023/04/19 04:39:09;;;;;;;;;;;5.70;99.90;;;;;;5094114;28;19928;-80
2023/04/19 04:41:34;;;;;;;;;;;5.70;99.90;;;;;;5075363;28;19924;-79
2023/04/19 04:44:03;;;;;;;;;;;5.70;99.90;;;;;;5087855;28;19932;-80
2023/04/19 04:46:29;;;;;;;;;;;5.70;99.90;;;;;;5071821;28;19928;-80
2023/04/19 04:48:55;;;;;;;;;;;5.70;99.90;;;;;;5077085;28;19925;-80
2023/04/19 04:51:20;;;;;;;;;;;5.70;99.90;;;;;;5058454;28;19932;-80
2023/04/19 04:53:46;;;;;;;;;;;5.70;99.90;;;;;;5101742;28;19928;-80
2023/04/19 04:56:11;;;;;;;;;;;5.70;99.90;;;;;;5085656;28;19931;-79
2023/04/19 04:58:37;;;;;;;;;;;5.70;99.90;;;;;;5070441;28;19929;-80
2023/04/19 05:01:02;;;;;;;;;;;5.80;99.90;;;;;;5056261;28;19932;-80
2023/04/19 05:03:28;;;;;;;;;;;5.90;99.90;;;;;;5075469;28;19955;-79
2023/04/19 05:05:54;;;;;;;;;;;6.00;99.90;;;;;;5087013;28;20414;-80
2023/04/19 05:08:19;;;;;;;;;;;6.20;99.90;;;;;;5088684;28;20408;-80
2023/04/19 05:10:45;;;;;;;;;;;6.40;99.90;;;;;;5070968;28;20013;-79
2023/04/19 05:13:11;;;;;;;;;;;6.40;99.90;;;;;;5088419;28;19929;-80
2023/04/19 05:15:36;;;;;;;;;;;6.40;99.90;;;;;;5088313;28;20047;-80
2023/04/19 05:18:02;;;;;;;;;;;6.40;99.90;;;;;;5054474;28;19968;-80
2023/04/19 05:20:28;;;;;;;;;;;6.50;99.90;;;;;;5063794;28;19991;-80
2023/04/19 05:22:57;;;;;;;;;;;6.50;99.90;;;;;;5059838;28;20379;-80
2023/04/19 05:25:23;;;;;;;;;;;6.40;99.90;;;;;;5093668;28;19925;-79
2023/04/19 05:27:48;;;;;;;;;;;6.40;99.90;;;;;;5093453;28;19963;-79
2023/04/19 05:30:14;;;;;;;;;;;6.40;99.90;;;;;;5076625;28;19924;-80
2023/04/19 05:32:40;;;;;;;;;;;6.40;99.90;;;;;;5076211;28;19971;-80
2023/04/19 05:35:05;;;;;;;;;;;6.50;99.90;;;;;;5044150;28;19954;-80
2023/04/19 05:37:31;;;;;;;;;;;6.50;99.90;;;;;;5093529;28;19978;-79
2023/04/19 05:39:57;;;;;;;;;;;6.40;99.90;;;;;;5039946;28;19952;-80
2023/04/19 05:42:22;;;;;;;;;;;6.40;99.90;;;;;;5038936;28;19988;-79
2023/04/19 05:44:48;;;;;;;;;;;6.40;99.90;;;;;;5089726;28;19991;-80
2023/04/19 05:47:13;;;;;;;;;;;6.40;99.90;;;;;;5070192;28;19925;-80
2023/04/19 05:49:39;;;;;;;;;;;6.40;99.90;;;;;;5091832;28;19924;-80
2023/04/19 05:52:05;;;;;;;;;;;6.40;99.90;;;;;;5039828;28;20416;-80
2023/04/19 05:54:34;;;;;;;;;;;6.50;99.90;;;;;;5085330;28;20433;-80
2023/04/19 05:57:00;;;;;;;;;;;6.60;99.90;;;;;;5086969;28;19929;-81
2023/04/19 05:59:26;;;;;;;;;;;6.80;99.90;;;;;;5086908;28;19925;-80
2023/04/19 06:01:52;;;;;;;;;;;6.90;99.90;;;;;;5068114;28;19928;-80
2023/04/19 06:04:17;;;;;;;;;;;7.00;99.90;;;;;;5055746;28;20395;-79
2023/04/19 06:06:43;;;;;;;;;;;7.10;99.90;;;;;;5085669;28;20391;-79
2023/04/19 06:09:08;;;;;;;;;;;7.10;99.90;;;;;;5086804;28;19932;-79
2023/04/19 06:11:34;;;;;;;;;;;7.10;99.90;;;;;;5073684;28;19928;-80
2023/04/19 06:14:00;;;;;;;;;;;7.10;99.90;;;;;;5039356;28;19940;-80
2023/04/19 06:16:25;;;;;;;;;;;7.10;99.90;;;;;;5062201;28;19935;-79
2023/04/19 06:18:51;;;;;;;;;;;7.00;99.90;;;;;;5061038;28;19932;-80
2023/04/19 06:21:16;;;;;;;;;;;7.10;99.90;;;;;;5085729;28;19925;-80
2023/04/19 06:23:42;;;;;;;;;;;7.10;99.90;;;;;;5069538;28;19924;-80
2023/04/19 06:26:07;;;;;;;;;;;7.20;99.90;;;;;;5043137;28;20055;-79
2023/04/19 06:28:33;;;;;;;;;;;7.30;99.90;;;;;;5069736;28;19928;-79
2023/04/19 06:30:59;;;;;;;;;;;7.30;99.90;;;;;;5086198;28;19967;-80
2023/04/19 06:33:24;;;;;;;;;;;7.50;99.90;;;;;;5083831;28;19925;-80
2023/04/19 06:35:50;;;;;;;;;;;7.60;99.90;;;;;;5082549;28;20691;-81
2023/04/19 06:38:15;;;;;;;;;;;7.60;99.90;;;;;;5048365;28;19969;-81
2023/04/19 06:40:41;;;;;;;;;;;7.60;99.90;;;;;;5078012;28;19925;-81
2023/04/19 06:43:06;;;;;;;;;;;7.70;99.90;;;;;;5073206;28;19979;-81
2023/04/19 06:45:32;;;;;;;;;;;7.90;99.90;;;;;;5071677;28;19925;-82
2023/04/19 06:47:58;;;;;;;;;;;8.30;99.90;;;;;;5070308;28;19944;-82
2023/04/19 06:50:23;;;;;;;;;;;8.50;99.90;;;;;;5085827;28;19928;-82
2023/04/19 06:52:49;;;;;;;;;;;8.60;99.90;;;;;;5070105;28;19932;-82
2023/04/19 06:55:15;;;;;;;;;;;8.90;99.90;;;;;;5088016;28;19925;-82
2023/04/19 06:57:41;;;;;;;;;;;9.20;99.90;;;;;;5086340;28;19964;-82
2023/04/19 07:00:07;;;;;;;;;;;9.50;99.90;;;;;;5093203;28;19924;-82
2023/04/19 07:02:33;;;;;;;;;;;9.50;99.90;;;;;;5074377;28;19925;-82
2023/04/19 07:04:58;;;;;;;;;;;9.40;99.90;;;;;;5084527;28;19924;-82
2023/04/19 07:07:24;;;;;;;;;;;9.30;99.90;;;;;;5088385;28;19947;-81
2023/04/19 07:09:49;;;;;;;;;;;9.30;99.90;;;;;;5078013;28;19929;-82
2023/04/19 07:12:15;;;;;;;;;;;9.30;99.50;;;;;;5079360;28;20007;-81
2023/04/19 07:14:40;;;;;;;;;;;9.60;99.90;;;;;;5078867;28;19929;-81
2023/04/19 07:17:06;;;;;;;;;;;10.10;99.90;;;;;;5079433;28;19951;-83
2023/04/19 07:19:32;;;;;;;;;;;10.60;98.20;;;;;;5078404;28;19931;-82
2023/04/19 07:21:57;;;;;;;;;;;11.20;98.50;;;;;;5062703;28;20295;-82
2023/04/19 07:24:25;;;;;;;;;;;11.70;94.90;;;;;;5083346;28;20354;-82
2023/04/19 07:26:50;;;;;;;;;;;12.00;94.40;;;;;;5058126;28;19925;-82
2023/04/19 07:29:16;;;;;;;;;;;12.30;92.70;;;;;;5090158;28;19928;-82
2023/04/19 07:31:42;;;;;;;;;;;12.20;84.00;;;;;;5070162;28;19925;-81
2023/04/19 07:34:07;;;;;;;;;;;12.40;86.50;;;;;;5068071;28;20063;-82
2023/04/19 07:36:34;;;;;;;;;;;12.50;92.00;;;;;;5054601;28;20335;-82
2023/04/19 07:38:59;;;;;;;;;;;12.60;84.10;;;;;;5071784;28;19932;-82
2023/04/19 07:41:25;;;;;;;;;;;12.70;81.70;;;;;;5073242;28;19928;-81
2023/04/19 07:43:51;;;;;;;;;;;12.80;93.10;;;;;;5088833;28;19985;-81
2023/04/19 07:46:17;;;;;;;;;;;13.00;88.90;;;;;;5079333;28;20027;-82
2023/04/19 07:48:43;;;;;;;;;;;13.30;80.10;;;;;;5041504;28;19925;-81
2023/04/19 07:51:12;;;;;;;;;;;13.40;82.50;;;;;;5089218;28;19955;-83
2023/04/19 07:53:38;;;;;;;;;;;13.30;83.70;;;;;;5086254;28;19928;-83
2023/04/19 07:56:05;;;;;;;;;;;13.30;81.30;;;;;;5091065;28;19972;-83
2023/04/19 07:58:30;;;;;;;;;;;13.30;73.30;;;;;;5094771;28;19935;-82
2023/04/19 08:00:56;;;;;;;;;;;13.50;80.30;;;;;;5061307;28;20018;-82
2023/04/19 08:03:22;;;;;;;;;;;13.50;84.70;;;;;;5075996;28;19935;-82
2023/04/19 08:05:47;;;;;;;;;;;13.60;83.80;;;;;;5053989;28;19928;-83
2023/04/19 08:08:13;;;;;;;;;;;13.70;74.10;;;;;;5039025;28;20029;-82
2023/04/19 08:10:38;;;;;;;;;;;13.80;75.10;;;;;;5077625;28;19925;-82
2023/04/19 08:13:04;;;;;;;;;;;14.00;75.20;;;;;;5071133;28;19932;-83
2023/04/19 08:15:30;;;;;;;;;;;14.20;79.80;;;;;;5071426;28;19958;-83
2023/04/19 08:17:55;;;;;;;;;;;14.20;75.20;;;;;;5088762;28;20015;-83
2023/04/19 08:20:22;;;;;;;;;;;14.20;73.90;;;;;;5086506;28;19996;-83
2023/04/19 08:22:47;;;;;;;;;;;14.20;76.40;;;;;;5068588;28;19936;-84
2023/04/19 08:25:13;;;;;;;;;;;14.10;72.10;;;;;;5092062;28;19929;-84
2023/04/19 08:27:38;;;;;;;;;;;14.20;70.40;;;;;;5094288;28;19929;-83
2023/04/19 08:30:05;;;;;;;;;;;14.20;76.30;;;;;;5078087;28;19931;-83
2023/04/19 08:32:31;;;;;;;;;;;14.20;69.90;;;;;;5087078;28;19933;-84
2023/04/19 08:34:56;;;;;;;;;;;14.00;67.70;;;;;;5070541;28;19931;-83
2023/04/19 08:37:22;;;;;;;;;;;14.10;71.90;;;;;;5040813;28;19925;-83
2023/04/19 08:39:47;;;;;;;;;;;14.40;67.90;;;;;;5035751;28;19939;-82
2023/04/19 08:42:13;;;;;;;;;;;14.40;65.70;;;;;;5068596;28;19935;-83
2023/04/19 08:44:39;;;;;;;;;;;14.40;68.40;;;;;;5082278;28;19933;-83
2023/04/19 08:47:05;;;;;;;;;;;14.20;70.30;;;;;;5072563;28;19924;-83
2023/04/19 08:49:35;;;;;;;;;;;14.40;71.00;;;;;;5069153;28;19940;-83
2023/04/19 08:52:03;;;;;;;;;;;14.50;69.90;;;;;;5087443;28;19931;-83
2023/04/19 08:54:29;;;;;;;;;;;14.70;70.20;;;;;;5057304;28;20384;-85
2023/04/19 08:56:57;;;;;;;;;;;14.80;66.50;;;;;;5088704;28;19938;-84
2023/04/19 08:59:23;;;;;;;;;;;14.90;68.30;;;;;;5086491;28;19925;-83
2023/04/19 09:01:49;;;;;;;;;;;15.00;66.10;;;;;;5071865;28;20539;-83
2023/04/19 09:04:14;;;;;;;;;;;15.00;66.00;;;;;;5068555;28;20365;-82
2023/04/19 09:06:40;;;;;;;;;;;15.00;63.10;;;;;;5057075;28;19979;-83
2023/04/19 09:09:17;;;;;;;;;;;15.00;63.10;;;;;;5071472;28;19925;-84
2023/04/19 09:11:43;;;;;;;;;;;15.20;67.10;;;;;;5044230;28;19936;-83
2023/04/19 09:14:09;;;;;;;;;;;15.30;64.30;;;;;;5069109;28;19928;-83
2023/04/19 09:16:38;;;;;;;;;;;15.10;60.10;;;;;;5087128;28;20498;-83
2023/04/19 09:19:04;;;;;;;;;;;15.00;58.80;;;;;;5078628;28;19946;-83
2023/04/19 09:21:31;;;;;;;;;;;14.90;60.50;;;;;;5087070;28;19932;-83
2023/04/19 09:23:56;;;;;;;;;;;15.00;62.10;;;;;;5070554;28;19935;-83
2023/04/19 09:26:22;;;;;;;;;;;14.90;61.70;;;;;;5073940;28;19925;-82
2023/04/19 09:29:01;;;;;;;;;;;15.10;61.80;;;;;;5075567;28;20003;-82
2023/04/19 09:31:27;;;;;;;;;;;15.10;63.80;;;;;;5056178;28;19925;-82
2023/04/19 09:33:53;;;;;;;;;;;15.10;63.80;;;;;;5091340;28;19932;-82
2023/04/19 09:36:31;;;;;;;;;;;15.30;66.00;;;;;;5073006;28;19933;-82
2023/04/19 09:38:57;;;;;;;;;;;15.20;56.50;;;;;;5077904;28;20011;-82
2023/04/19 09:41:23;;;;;;;;;;;15.20;64.60;;;;;;5057744;28;19946;-88
2023/04/19 09:43:49;;;;;;;;;;;15.40;58.90;;;;;;5088529;28;19975;-90
2023/04/19 09:46:31;;;;;;;;;;;15.50;60.20;;;;;;5075223;28;19952;-82
2023/04/19 09:49:14;;;;;;;;;;;15.60;61.90;;;;;;5089351;28;19924;-82
2023/04/19 09:51:44;;;;;;;;;;;15.60;55.90;;;;;;5072907;28;19945;-83
2023/04/19 09:54:10;;;;;;;;;;;15.60;55.10;;;;;;5093170;28;19931;-83
2023/04/19 09:56:36;;;;;;;;;;;15.30;56.60;;;;;;5051645;28;19925;-83
2023/04/19 09:59:02;;;;;;;;;;;15.20;59.20;;;;;;5076508;28;19924;-84
2023/04/19 10:01:28;;;;;;;;;;;15.30;61.40;;;;;;5075909;28;19932;-83
2023/04/19 10:03:55;;;;;;;;;;;15.50;59.80;;;;;;5092831;28;19928;-83
2023/04/19 10:06:21;;;;;;;;;;;15.60;56.00;;;;;;5072018;28;19946;-84
2023/04/19 10:08:47;;;;;;;;;;;15.80;59.10;;;;;;5071190;28;19984;-82
2023/04/19 10:11:14;;;;;;;;;;;15.90;58.60;;;;;;5058986;28;20562;-84
2023/04/19 10:13:40;;;;;;;;;;;15.90;60.10;;;;;;5065760;28;19924;-84
2023/04/19 10:16:06;;;;;;;;;;;15.80;60.00;;;;;;5091932;28;19928;-83
2023/04/19 10:18:31;;;;;;;;;;;15.50;58.80;;;;;;5075478;28;19929;-83
2023/04/19 10:21:06;;;;;;;;;;;15.20;58.00;;;;;;5086696;28;19924;-80
2023/04/19 10:23:32;;;;;;;;;;;15.00;59.80;;;;;;5070002;28;19932;-76
2023/04/19 10:25:58;;;;;;;;;;;15.00;59.10;;;;;;5083207;28;19971;-76
2023/04/19 10:28:26;;;;;;;;;;;14.90;57.50;;;;;;5060866;28;19924;-77
2023/04/19 10:30:52;;;;;;;;;;;14.80;57.10;;;;;;5049626;28;19955;-77
2023/04/19 10:33:25;;;;;;;;;;;14.80;59.90;;;;;;5087032;28;19924;-77
2023/04/19 10:35:51;;;;;;;;;;;14.80;56.10;;;;;;5076517;28;19924;-77
2023/04/19 10:38:18;;;;;;;;;;;14.80;55.50;;;;;;5044989;28;19931;-77
2023/04/19 10:40:49;;;;;;;;;;;14.70;56.10;;;;;;5075472;28;19932;-77
2023/04/19 10:43:19;;;;;;;;;;;14.80;55.80;;;;;;5057778;28;19932;-76
2023/04/19 10:45:45;;;;;;;;;;;14.70;55.60;;;;;;5086690;28;19925;-76
2023/04/19 10:48:29;;;;;;;;;;;14.70;57.80;;;;;;5076292;28;19924;-76
2023/04/19 10:51:01;;;;;;;;;;;14.60;58.30;;;;;;5078898;28;19932;-76
2023/04/19 10:53:46;;;;;;;;;;;14.70;57.20;;;;;;5077395;28;19958;-77
2023/04/19 10:56:12;;;;;;;;;;;14.70;55.40;;;;;;5078135;28;20359;-77
2023/04/19 10:58:56;;;;;;;;;;;14.80;57.00;;;;;;5079384;28;19925;-76
2023/04/19 11:01:38;;;;;;;;;;;14.90;56.50;;;;;;5095741;28;19925;-76
2023/04/19 11:04:13;;;;;;;;;;;15.00;53.70;;;;;;5078256;28;19936;-76
2023/04/19 11:06:54;;;;;;;;;;;15.30;53.70;;;;;;5078066;28;19956;-77
2023/04/19 11:09:23;;;;;;;;;;;15.10;52.60;;;;;;5053597;28;19992;-76
2023/04/19 11:11:49;;;;;;;;;;;15.10;54.20;;;;;;5091621;28;19940;-76
2023/04/19 11:14:15;;;;;;;;;;;15.10;54.50;;;;;;5075932;28;19926;-77
2023/04/19 11:16:40;;;;;;;;;;;15.10;54.00;;;;;;5046664;28;19925;-76
2023/04/19 11:19:06;;;;;;;;;;;15.20;53.50;;;;;;5078539;28;19928;-77
2023/04/19 11:21:32;;;;;;;;;;;15.40;53.10;;;;;;5062710;28;19932;-77
2023/04/19 11:24:07;;;;;;;;;;;15.50;53.80;;;;;;5078800;28;19960;-77
2023/04/19 11:26:32;;;;;;;;;;;15.70;55.20;;;;;;5085818;28;19925;-77
2023/04/19 11:28:59;;;;;;;;;;;15.80;55.40;;;;;;5069190;28;20057;-76
2023/04/19 11:31:24;;;;;;;;;;;15.90;52.50;;;;;;5061725;28;19963;-76
2023/04/19 11:33:50;;;;;;;;;;;15.80;56.60;;;;;;5078761;28;19924;-77
2023/04/19 11:36:16;;;;;;;;;;;15.70;53.80;;;;;;5058294;28;19936;-77
2023/04/19 11:38:46;;;;;;;;;;;15.60;54.70;;;;;;5077494;28;19929;-77
2023/04/19 11:41:11;;;;;;;;;;;15.80;56.90;;;;;;5061853;28;19924;-77
2023/04/19 11:43:37;;;;;;;;;;;15.90;55.60;;;;;;5091348;28;19932;-76
2023/04/19 11:46:06;;;;;;;;;;;15.90;52.60;;;;;;5091552;28;19925;-76
2023/04/19 11:48:32;;;;;;;;;;;16.00;54.60;;;;;;5060710;28;19934;-76
2023/04/19 11:50:58;;;;;;;;;;;15.90;53.50;;;;;;5095814;28;20448;-76
2023/04/19 11:53:25;;;;;;;;;;;15.80;52.80;;;;;;5076217;28;19931;-77
2023/04/19 11:55:57;;;;;;;;;;;15.90;54.00;;;;;;5095498;28;19925;-77
2023/04/19 11:58:27;;;;;;;;;;;15.80;53.60;;;;;;5061060;28;19925;-76
2023/04/19 12:00:54;;;;;;;;;;;15.80;52.90;;;;;;5095567;28;19964;-77
2023/04/19 12:03:21;;;;;;;;;;;16.00;53.30;;;;;;5057982;28;19929;-76
2023/04/19 12:05:57;;;;;;;;;;;15.90;52.90;;;;;;5092443;28;19924;-77
2023/04/19 12:08:33;;;;;;;;;;;15.90;52.30;;;;;;5059450;28;20458;-77
2023/04/19 12:10:59;;;;;;;;;;;15.90;53.20;;;;;;5058736;28;19928;-77
2023/04/19 12:13:25;;;;;;;;;;;15.90;52.70;;;;;;5078652;28;19967;-76
2023/04/19 12:15:50;;;;;;;;;;;15.70;52.60;;;;;;5057754;28;19925;-78
2023/04/19 12:18:16;;;;;;;;;;;15.80;54.20;;;;;;5094118;28;19946;-77
2023/04/19 12:20:45;;;;;;;;;;;15.60;54.80;;;;;;5075217;28;19924;-77
2023/04/19 12:23:14;;;;;;;;;;;15.60;54.40;;;;;;5081149;28;19924;-76
2023/04/19 12:25:41;;;;;;;;;;;15.60;55.70;;;;;;5089131;28;19924;-77
2023/04/19 12:28:06;;;;;;;;;;;15.60;55.90;;;;;;5094091;28;19924;-77
2023/04/19 12:30:33;;;;;;;;;;;15.80;54.70;;;;;;5059831;28;19929;-77
2023/04/19 12:32:59;;;;;;;;;;;15.80;56.40;;;;;;5095787;28;19939;-77
2023/04/19 12:35:26;;;;;;;;;;;15.70;54.20;;;;;;5066300;28;19925;-77
2023/04/19 12:37:56;;;;;;;;;;;15.70;55.60;;;;;;5074418;28;19932;-78
2023/04/19 12:40:22;;;;;;;;;;;15.70;57.80;;;;;;5107307;28;20035;-76
2023/04/19 12:42:47;;;;;;;;;;;15.80;57.70;;;;;;5091980;28;19924;-78
2023/04/19 12:45:13;;;;;;;;;;;15.90;55.40;;;;;;5067905;28;20020;-77
2023/04/19 12:47:39;;;;;;;;;;;16.00;56.10;;;;;;5068693;28;19932;-77
2023/04/19 12:50:06;;;;;;;;;;;15.90;55.80;;;;;;5080799;28;19924;-76
2023/04/19 12:52:31;;;;;;;;;;;15.90;54.90;;;;;;5076388;28;19936;-77
2023/04/19 12:54:57;;;;;;;;;;;15.90;55.50;;;;;;5076715;28;19925;-77
2023/04/19 12:57:23;;;;;;;;;;;15.90;56.20;;;;;;5077366;28;19931;-76
2023/04/19 12:59:48;;;;;;;;;;;15.90;55.30;;;;;;5060788;28;19932;-77
2023/04/19 13:02:14;;;;;;;;;;;15.80;55.90;;;;;;5062604;28;19947;-77
2023/04/19 13:04:40;;;;;;;;;;;15.70;55.60;;;;;;5089241;28;19925;-76
2023/04/19 13:07:05;;;;;;;;;;;15.70;56.30;;;;;;5084965;28;19928;-76
2023/04/19 13:09:31;;;;;;;;;;;15.60;57.30;;;;;;5042181;28;19931;-77
2023/04/19 13:11:57;;;;;;;;;;;15.80;58.60;;;;;;5057436;28;19929;-76
2023/04/19 13:14:23;;;;;;;;;;;15.80;57.60;;;;;;5072346;28;19929;-77
2023/04/19 13:16:48;;;;;;;;;;;15.80;56.90;;;;;;5058952;28;19936;-76
2023/04/19 13:19:14;;;;;;;;;;;15.70;57.20;;;;;;5093078;28;19954;-76
2023/04/19 13:21:40;;;;;;;;;;;15.50;56.30;;;;;;5064240;28;19925;-77
2023/04/19 13:24:06;;;;;;;;;;;15.40;56.10;;;;;;5065931;28;19964;-77
2023/04/19 13:26:33;;;;;;;;;;;15.40;57.40;;;;;;5074783;28;19925;-76
2023/04/19 13:28:59;;;;;;;;;;;15.40;58.10;;;;;;5102796;28;19939;-82
2023/04/19 13:31:25;;;;;;;;;;;15.40;58.40;;;;;;5093171;28;19924;-82
2023/04/19 13:33:51;;;;;;;;;;;15.40;57.40;;;;;;5046355;28;20432;-82
2023/04/19 13:36:17;;;;;;;;;;;15.30;56.20;;;;;;5075690;28;19924;-82
2023/04/19 13:38:43;;;;;;;;;;;15.30;56.70;;;;;;5091115;28;19972;-83
2023/04/19 13:41:08;;;;;;;;;;;15.20;55.70;;;;;;5076603;28;19985;-83
2023/04/19 13:43:34;;;;;;;;;;;15.30;57.80;;;;;;5059907;28;20376;-82
2023/04/19 13:46:00;;;;;;;;;;;15.30;56.90;;;;;;5080256;28;19924;-82
2023/04/19 13:48:27;;;;;;;;;;;15.30;58.00;;;;;;5061755;28;19929;-82
2023/04/19 13:50:54;;;;;;;;;;;15.30;58.90;;;;;;5076444;28;19936;-83
2023/04/19 13:53:19;;;;;;;;;;;15.30;58.20;;;;;;5092944;28;19924;-83
2023/04/19 13:55:45;;;;;;;;;;;15.30;56.80;;;;;;5060226;28;19932;-84
2023/04/19 13:58:10;;;;;;;;;;;15.30;56.80;;;;;;5060109;28;19932;-82
2023/04/19 14:00:36;;;;;;;;;;;15.40;58.30;;;;;;5057376;28;19925;-84
2023/04/19 14:03:02;;;;;;;;;;;15.40;55.50;;;;;;5059589;28;19929;-83
2023/04/19 14:05:28;;;;;;;;;;;15.40;55.20;;;;;;5090618;28;19924;-84
2023/04/19 14:07:53;;;;;;;;;;;15.50;56.30;;;;;;5077109;28;19967;-83
2023/04/19 14:10:19;;;;;;;;;;;15.40;56.60;;;;;;5074161;28;20042;-78
2023/04/19 14:12:45;;;;;;;;;;;15.50;57.30;;;;;;5076971;28;19924;-90
2023/04/19 14:15:11;;;;;;;;;;;15.30;57.50;;;;;;5075459;28;20379;-88
2023/04/19 14:17:36;;;;;;;;;;;15.30;58.30;;;;;;5081724;28;19929;-84
2023/04/19 14:20:02;;;;;;;;;;;15.30;58.20;;;;;;5043694;28;20003;-77